Aviation Digital Data Service (ADDS)

Output produced by METARs form (1551 UTC 30 September 2014)
found at http://aviationweather.gov/adds/metars/
 
KPHL 301503Z 3015/0118 11005KT P6SM FEW040 SCT200 
     FM301800 10006KT P6SM SCT050 BKN150 
     FM010600 03008KT P6SM BKN010 
     FM010900 02010KT 6SM BR OVC006 
     FM011500 04010KT P6SM BKN010